Latest Coastal Weather Observations for Hogan Island

IDT60701

Issued at 12:22 am EST Wednesday 4 May 2016 (issued every 10 minutes, with the page automatically refreshed every 10 minutes)

About coastal observations | Map of coastal stations | Coastal observations for TAS | Marine services | Other Formats
Station Details ID: 200838 Name: HOGAN ISLAND Lat: -39.22 Lon: 146.98 Height: 116.0 m
Data from the previous 72 hours. | See also: Recent months at Hogan Island
Date/Time
EST
Temp

°C
Wind Pressure Rain
since 9am
mm
Weather Cloud Vis
km
Sea
Height
m
Swell
Dir
 
Speed
knots
Gust
knots
hPa Trend Height
m
Period
s
Dir
04/12:06am 13.4 WNW 44 54 1003.5 - 1.2 - - - - - - -
04/12:00am 13.1 W 45 53 1002.9 - 1.2 - - - - - - -
 
Date/Time
EST
Temp

°C
Wind Pressure Rain
since 9am
mm
Weather Cloud Vis
km
Sea
Height
m
Swell
Dir
 
Speed
knots
Gust
knots
hPa Trend Height
m
Period
s
Dir
03/11:38pm 13.2 WNW 43 53 1002.6 - 1.2 - - - - - - -
03/11:30pm 13.1 W 44 52 1002.9 - 1.2 - - - - - - -
03/11:00pm 12.3 W 45 52 - - 1.2 - - - - - - -
03/10:30pm 11.9 W 51 65 1002.6 - 1.2 - - - - - - -
03/10:02pm 13.6 W 47 57 1002.6 - 1.2 - - - - - - -
03/10:00pm 13.5 W 48 57 1002.3 - 1.2 - - - - - - -
03/09:42pm 13.4 W 41 52 1002.2 - 1.2 - - - - - - -
03/09:30pm 13.3 W 43 52 1002.1 - 1.2 - - - - - - -
03/09:00pm 13.4 W 45 54 1001.5 - 1.2 - - - - - - -
03/08:31pm 13.2 W 45 55 1001.5 - 1.2 - - - - - - -
03/08:30pm 13.2 W 46 55 1001.5 - 1.2 - - - - - - -
03/08:00pm 13.6 W 46 54 1001.1 - 1.0 - - - - - - -
03/07:41pm 13.3 W 50 60 1000.6 - 1.0 - - - - - - -
03/07:30pm 13.4 W 51 59 1000.1 - 1.0 - - - - - - -
03/07:02pm 13.6 W 47 58 999.5 - 1.0 - - - - - - -
03/07:00pm 13.7 W 45 53 999.7 - 1.0 - - - - - - -
03/06:30pm 13.2 W 48 58 999.0 - 1.0 - - - - - - -
03/06:00pm 12.6 W 52 68 997.9 - 1.0 - - - - - - -
03/05:51pm 12.4 W 58 68 997.2 - 1.0 - - - - - - -
03/05:49pm 12.0 W 58 65 997.3 - 1.0 - - - - - - -
03/05:37pm 12.7 W 46 57 997.5 - 1.0 - - - - - - -
03/05:30pm 12.8 W 48 55 997.4 - 1.0 - - - - - - -
03/05:00pm 12.2 W 49 61 996.2 - 1.0 - - - - - - -
03/04:31pm 12.3 W 49 59 996.0 - 0.8 - - - - - - -
03/04:30pm 12.3 W 50 59 996.1 - 0.8 - - - - - - -
03/04:15pm 12.4 W 58 73 995.0 - 0.4 - - - - - - -
03/04:02pm 13.5 W 62 73 992.9 - 0.0 - - - - - - -
03/04:00pm 14.3 WNW 50 66 993.1 - 0.0 - - - - - - -
03/03:30pm 17.9 NW 46 60 992.7 - 0.0 - - - - - - -
03/03:00pm 18.4 WNW 47 58 992.3 - 0.0 - - - - - - -
03/02:33pm 18.2 NW 38 48 993.2 - 0.0 - - - - - - -
03/02:30pm 18.3 WNW 40 48 993.2 - 0.0 - - - - - - -
03/02:00pm 19.0 NW 35 46 993.4 - 0.0 - - - - - - -
03/01:30pm 17.5 WNW 43 54 993.5 - 0.0 - - - - - - -
03/01:11pm 18.3 WNW 41 51 993.8 - 0.0 - - - - - - -
03/01:00pm 18.2 WNW 41 49 994.0 - 0.0 - - - - - - -
03/12:30pm 18.0 NW 34 44 994.9 - 0.0 - - - - - - -
03/12:03pm 18.0 NW 38 48 995.1 - 0.0 - - - - - - -
03/12:00pm 18.0 NW 38 47 995.1 - 0.0 - - - - - - -
03/11:32am 18.0 NW 36 47 996.1 - 0.0 - - - - - - -
03/11:30am 18.0 NW 35 44 996.1 - 0.0 - - - - - - -
03/11:00am 18.6 NW 39 50 996.5 - 0.0 - - - - - - -
03/10:30am 18.5 NW 45 58 996.3 - 0.0 - - - - - - -
03/10:00am 18.0 NW 44 56 996.5 - 0.0 - - - - - - -
03/09:30am 17.8 NW 45 55 996.9 - 0.0 - - - - - - -
03/09:01am 17.4 NW 41 51 997.5 - 0.0 - - - - - - -
03/09:00am 17.4 NW 42 51 997.5 - 0.0 - - - - - - -
03/08:50am 17.4 NW 40 53 997.3 - 0.0 - - - - - - -
03/08:30am 17.0 NNW 36 44 998.0 - 0.0 - - - - - - -
03/08:03am 16.7 NNW 35 45 998.1 - 0.0 - - - - - - -
03/08:00am 16.5 NNW 35 44 998.3 - 0.0 - - - - - - -
03/07:39am 16.4 NW 34 44 998.5 - 0.0 - - - - - - -
03/07:30am 16.4 NNW 34 41 998.6 - 0.0 - - - - - - -
03/07:01am 16.4 NNW 35 45 998.6 - 0.0 - - - - - - -
03/07:00am 16.4 NNW 36 45 998.7 - 0.0 - - - - - - -
03/06:33am 16.5 NW 38 48 998.7 - 0.0 - - - - - - -
03/06:30am 16.5 NW 39 47 998.7 - 0.0 - - - - - - -
03/06:00am 16.4 NW 39 - 999.2 - - - - - - - - -
03/05:57am 16.5 NW 38 50 999.1 - 0.0 - - - - - - -
03/05:30am 16.4 NW 42 50 999.4 - 0.0 - - - - - - -
03/05:00am 16.2 NW 39 52 999.8 - 0.0 - - - - - - -
03/04:58am 16.3 NW 39 51 999.7 - 0.0 - - - - - - -
03/04:30am 16.0 NW 36 45 1000.4 - 0.0 - - - - - - -
03/04:00am 16.0 NNW 28 38 1000.6 - 0.0 - - - - - - -
03/03:30am 15.9 NNW 22 32 1001.5 - 0.0 - - - - - - -
03/03:07am 15.8 NNW 24 35 1001.7 - 0.0 - - - - - - -
03/03:00am 15.8 NNW 26 34 1001.8 - 0.0 - - - - - - -
03/02:36am 15.7 NW 33 43 1001.6 - 0.0 - - - - - - -
03/02:30am 15.6 NW 33 41 1001.5 - 0.0 - - - - - - -
03/02:00am 15.5 NW 32 40 1002.3 - 0.0 - - - - - - -
03/01:30am 15.4 NNW 28 35 1003.1 - 0.0 - - - - - - -
03/01:13am 15.4 NNW 28 38 1003.2 - 0.0 - - - - - - -
03/01:00am 15.1 NNW 26 34 1003.5 - 0.0 - - - - - - -
03/12:39am 14.9 NNW 22 32 1003.7 - 0.0 - - - - - - -
03/12:30am 14.6 NNW 20 29 1003.9 - 0.0 - - - - - - -
03/12:00am 14.8 NNW 21 34 1004.0 - 0.0 - - - - - - -
 
Date/Time
EST
Temp

°C
Wind Pressure Rain
since 9am
mm
Weather Cloud Vis
km
Sea
Height
m
Swell
Dir
 
Speed
knots
Gust
knots
hPa Trend Height
m
Period
s
Dir
02/11:30pm 14.6 NNW 23 33 1004.8 - 0.0 - - - - - - -
02/11:11pm 14.4 NNW 20 30 1005.2 - 0.0 - - - - - - -
02/11:00pm 14.6 NNW 26 32 1005.2 - 0.0 - - - - - - -
02/10:30pm 14.7 NNW 28 38 1005.3 - 0.0 - - - - - - -
02/10:01pm 14.8 NNW 29 39 1005.6 - 0.0 - - - - - - -
02/10:00pm 14.8 NNW 30 39 1005.6 - 0.0 - - - - - - -
02/09:30pm 14.7 NW 35 42 1005.9 - 0.0 - - - - - - -
02/09:00pm 14.5 NW 36 42 1005.9 - 0.0 - - - - - - -
02/08:30pm 14.8 NW 34 41 1006.0 - 0.0 - - - - - - -
02/08:00pm 14.8 NW 33 39 1006.3 - 0.0 - - - - - - -
02/07:30pm 14.8 NW 35 43 1006.4 - 0.0 - - - - - - -
02/07:00pm 14.8 NW 28 36 1006.9 - 0.0 - - - - - - -
02/06:30pm 14.8 NW 32 39 1006.8 - 0.0 - - - - - - -
02/06:00pm 14.9 NW 32 39 1006.6 - 0.0 - - - - - - -
02/05:30pm 14.8 NW 33 41 1006.6 - 0.0 - - - - - - -
02/05:00pm 15.0 NW 28 38 1006.9 - 0.0 - - - - - - -
02/04:30pm 15.2 NW 30 37 1007.0 - 0.0 - - - - - - -
02/04:00pm 15.2 NW 30 41 1007.2 - 0.0 - - - - - - -
02/03:30pm 15.3 NW 30 42 1007.3 - 0.0 - - - - - - -
02/03:23pm 15.3 NW 31 42 1007.1 - 0.0 - - - - - - -
02/03:00pm 15.3 NW 29 38 1007.2 - 0.0 - - - - - - -
02/02:30pm 15.8 NW 29 40 1007.4 - 0.0 - - - - - - -
02/02:02pm 15.4 WNW 33 43 1007.3 - 0.0 - - - - - - -
02/02:00pm 15.3 WNW 34 43 1007.2 - 0.0 - - - - - - -
02/01:47pm 15.2 NW 33 43 1007.2 - 0.0 - - - - - - -
02/01:30pm 14.9 NW 32 40 1007.5 - 0.0 - - - - - - -
02/01:16pm 15.1 NW 31 41 1007.7 - 0.0 - - - - - - -
02/01:00pm 14.9 WNW 32 37 1008.1 - 0.0 - - - - - - -
02/12:30pm 14.4 WNW 34 41 1008.4 - 0.0 - - - - - - -
02/12:00pm 14.7 WNW 35 42 1008.8 - 0.0 - - - - - - -
02/11:30am 13.8 WNW 32 37 1009.3 - 0.0 - - - - - - -
02/11:00am 13.3 WNW 32 36 1009.9 - 0.0 - - - - - - -
02/10:30am 13.1 WNW 34 40 1010.2 - 0.0 - - - - - - -
02/10:00am 12.6 WNW 35 41 1010.2 - 0.0 - - - - - - -
02/09:30am 12.6 WNW 33 40 1010.4 - 0.0 - - - - - - -
02/09:00am 12.1 WNW 35 41 1010.2 - 5.6 - - - - - - -
02/08:30am 11.7 WNW 33 39 1010.6 - 5.6 - - - - - - -
02/08:00am 11.7 WNW 33 38 1010.5 - 5.6 - - - - - - -
02/07:30am 11.5 WNW 35 39 1010.1 - 5.6 - - - - - - -
02/07:00am 11.5 WNW 35 40 1010.0 - 5.6 - - - - - - -
02/06:30am 11.6 WNW 33 39 1010.0 - 5.6 - - - - - - -
02/06:00am 11.8 WNW 31 37 1010.0 - 5.6 - - - - - - -
02/05:30am 11.8 WNW 34 41 1009.9 - 5.6 - - - - - - -
02/05:00am 11.9 WNW 38 45 1009.5 - 5.6 - - - - - - -
02/04:30am 11.4 WNW 38 43 1009.3 - 5.6 - - - - - - -
02/04:00am 11.1 WNW 35 41 1009.6 - 5.6 - - - - - - -
02/03:30am 11.2 WNW 31 40 1009.6 - 4.6 - - - - - - -
02/03:07am 11.3 WNW 33 43 1009.6 - 3.6 - - - - - - -
02/03:00am 11.3 WNW 33 37 1009.7 - 3.2 - - - - - - -
02/02:30am 11.6 WNW 37 48 1009.7 - 3.2 - - - - - - -
02/02:21am 11.9 WNW 37 48 1009.4 - 3.2 - - - - - - -
02/02:00am 11.2 WNW 33 39 1009.9 - 3.0 - - - - - - -
02/01:30am 12.0 WNW 31 38 1010.1 - 2.8 - - - - - - -
02/01:00am 12.0 WNW 35 41 1009.9 - 2.8 - - - - - - -
02/12:30am 12.6 W 38 50 1009.4 - 2.8 - - - - - - -
02/12:21am 12.9 W 40 50 1009.3 - 2.8 - - - - - - -
02/12:00am 12.6 W 37 42 1009.8 - 2.8 - - - - - - -
 
Date/Time
EST
Temp

°C
Wind Pressure Rain
since 9am
mm
Weather Cloud Vis
km
Sea
Height
m
Swell
Dir
 
Speed
knots
Gust
knots
hPa Trend Height
m
Period
s
Dir
01/11:53pm 13.1 W 37 47 1010.0 - 2.8 - - - - - - -
01/11:30pm 12.2 W 41 48 1009.6 - 2.8 - - - - - - -
01/11:00pm 11.9 W 40 50 1009.5 - 2.8 - - - - - - -
01/10:56pm 12.0 W 38 50 1009.5 - 2.8 - - - - - - -
01/10:30pm 12.7 W 39 45 1009.6 - 2.6 - - - - - - -
01/10:00pm 13.2 W 40 51 1009.5 - 2.6 - - - - - - -
01/09:59pm 13.2 W 41 51 1009.6 - 2.6 - - - - - - -
01/09:30pm 13.3 W 40 49 1009.2 - 2.6 - - - - - - -
01/09:00pm 13.5 W 43 51 1008.8 - 2.6 - - - - - - -
01/08:30pm 13.3 W 43 52 1008.4 - 2.6 - - - - - - -
01/08:10pm 13.2 W 42 52 1008.3 - 2.6 - - - - - - -
01/08:00pm 13.1 W 43 52 1007.9 - 2.6 - - - - - - -
01/07:59pm 13.2 W 42 52 1008.1 - 2.6 - - - - - - -
01/07:30pm 13.2 W 44 53 1007.7 - 2.6 - - - - - - -
01/07:00pm 13.3 W 44 53 1007.4 - 2.6 - - - - - - -
01/06:30pm 13.3 W 45 53 1006.6 - 2.6 - - - - - - -
01/06:00pm 13.1 W 50 60 1006.0 - 2.6 - - - - - - -
01/05:30pm 12.5 W 49 61 1005.4 - 2.6 - - - - - - -
01/05:00pm 12.9 W 47 57 1005.1 - 2.6 - - - - - - -
01/04:35pm 13.2 W 50 60 1003.9 - 2.6 - - - - - - -
01/04:30pm 13.1 W 51 60 1003.9 - 2.6 - - - - - - -
01/04:00pm 12.9 W 45 58 1004.0 - 2.6 - - - - - - -
01/03:30pm 12.6 W 47 58 1003.2 - 2.6 - - - - - - -
01/03:00pm 12.1 W 48 59 1003.2 - 2.2 - - - - - - -
01/02:42pm 10.7 WNW 49 70 1002.2 - 2.2 - - - - - - -
01/02:39pm 10.3 WNW 48 70 1002.3 - 2.2 - - - - - - -
01/02:34pm 9.8 WNW 60 70 1001.2 - 2.0 - - - - - - -
01/02:33pm 10.8 WNW 48 70 1001.3 - 2.0 - - - - - - -
01/02:32pm 11.6 WNW 46 59 1002.3 - 2.0 - - - - - - -
01/02:30pm 11.9 WNW 46 55 1002.3 - 2.0 - - - - - - -
01/02:00pm 12.8 WNW 45 55 1001.6 - 2.0 - - - - - - -
01/01:59pm 12.8 WNW 45 55 1001.6 - 2.0 - - - - - - -
01/01:30pm 12.3 W 46 54 1001.7 - 2.0 - - - - - - -
01/01:00pm 10.9 WNW 51 62 1001.2 - 2.0 - - - - - - -
01/12:50pm 12.0 WNW 51 61 1000.6 - 2.0 - - - - - - -
01/12:46pm 12.8 WNW 50 58 1000.9 - 1.8 - - - - - - -
01/12:34pm 12.4 WNW 38 53 1001.4 - 1.8 - - - - - - -
01/12:30pm 13.1 WNW 38 47 1001.7 - 1.8 - - - - - - -
01/12:00pm 11.7 WNW 43 48 1001.3 - 1.8 - - - - - - -
01/11:30am 10.5 WNW 45 59 1001.0 - 1.2 - - - - - - -
01/11:20am 12.3 WNW 49 59 1001.0 - 0.6 - - - - - - -
01/11:00am 13.8 WNW 51 59 1000.4 - 0.2 - - - - - - -
01/10:31am 12.1 WNW 47 57 1000.8 - 0.2 - - - - - - -
01/10:30am 12.2 WNW 48 57 1000.8 - 0.2 - - - - - - -
01/10:00am 13.1 WNW 49 62 999.8 - 0.0 - - - - - - -
01/09:56am 14.2 WNW 46 62 999.7 - 0.0 - - - - - - -
01/09:42am 16.0 WNW 42 52 1000.5 - 0.0 - - - - - - -
01/09:38am 16.0 WNW 46 52 1000.2 - 0.0 - - - - - - -
01/09:30am 15.8 NW 34 44 1001.0 - 0.0 - - - - - - -
01/09:13am 16.0 NW 32 42 1001.1 - 0.0 - - - - - - -
01/09:00am 15.8 NW 30 34 1001.1 - 7.6 - - - - - - -
01/08:53am 15.7 NW 30 33 1001.1 - 7.6 - - - - - - -
01/08:30am 15.4 NNW 18 26 1001.7 - 7.6 - - - - - - -
01/08:00am 15.0 N 12 17 1002.0 - 7.6 - - - - - - -
01/07:30am 14.5 NNW 20 25 1002.1 - 7.6 - - - - - - -
01/07:00am 13.8 NNW 15 21 1001.6 - 7.6 - - - - - - -
01/06:30am 13.5 NW 17 23 1002.2 - 7.6 - - - - - - -
01/06:06am 13.4 WNW 18 33 1002.3 - 7.2 - - - - - - -
01/06:00am 13.4 WNW 31 37 1002.8 - 7.0 - - - - - - -
01/05:47am 13.2 WNW 36 59 1002.8 - 5.6 - - - - - - -
01/05:41am 13.0 WNW 39 63 1003.0 - 4.6 - - - - - - -
01/05:36am 13.7 NW 52 63 1002.0 - 1.8 - - - - - - -
01/05:35am 15.3 NNW 39 63 1002.4 - 1.2 - - - - - - -
01/05:34am 16.3 NNW 31 43 1003.0 - 0.6 - - - - - - -
01/05:33am 16.4 N 27 37 1003.1 - 0.4 - - - - - - -
01/05:30am 16.8 NNE 26 30 1002.3 - 0.0 - - - - - - -
01/05:00am 17.1 NNE 23 29 1001.2 - 0.0 - - - - - - -
01/04:30am 16.6 NNE 21 26 1001.3 - 0.0 - - - - - - -
01/04:00am 16.7 NNE 19 25 1002.1 - 0.0 - - - - - - -
01/03:30am 17.0 NNE 20 25 1002.7 - 0.0 - - - - - - -
01/03:00am 17.6 NNE 22 27 1003.7 - 0.0 - - - - - - -
01/02:30am 19.1 N 24 29 1004.6 - 0.0 - - - - - - -
01/02:00am 17.4 N 19 25 1005.2 - 0.0 - - - - - - -
01/01:30am 16.7 NNE 16 18 1005.9 - 0.0 - - - - - - -
01/01:00am 17.7 N 17 19 1006.8 - 0.0 - - - - - - -
01/12:30am 17.3 N 16 18 1007.2 - 0.0 - - - - - - -

Other Formats:

Comma delimited format used in spreadsheet applications
http://www.bom.gov.au/fwo/IDT60701/IDT60701.94949.axf

JavaScript Object Notation format (JSON) in row-major order
http://www.bom.gov.au/fwo/IDT60701/IDT60701.94949.json